Time;durP1;ratioP1;P1;durP2;ratioP2;P2;SDS_P1;SDS_P2;PMS_P1;PMS_P2;Temp;Humidity;BMP_temperature;BMP_pressure;BME280_temperature;BME280_humidity;BME280_pressure;Samples;Min_cycle;Max_cycle;Signal;HPM_P1;HPM_P2
2021/05/04 00:02:29;;;;;;;10.60;3.83;;;;;;;10.82;77.73;100008.41;10331782;28;20034;-78
2021/05/04 00:07:30;;;;;;;8.32;3.53;;;;;;;10.56;81.02;100010.22;10344758;28;20034;-76
2021/05/04 00:12:30;;;;;;;16.23;5.22;;;;;;;10.43;86.67;100003.59;10350419;28;20030;-78
2021/05/04 00:17:31;;;;;;;13.48;4.07;;;;;;;10.19;88.01;99988.00;10353411;28;20405;-75
2021/05/04 00:22:31;;;;;;;12.88;3.83;;;;;;;10.05;88.67;99946.25;10357966;28;20021;-74
2021/05/04 00:27:32;;;;;;;10.82;3.47;;;;;;;9.77;92.21;99919.06;10363881;28;20300;-75
2021/05/04 00:32:32;;;;;;;9.90;3.53;;;;;;;9.79;92.63;99941.06;10348314;28;20403;-75
2021/05/04 00:37:33;;;;;;;13.93;3.95;;;;;;;9.89;94.21;99937.66;10330220;28;20051;-75
2021/05/04 00:42:33;;;;;;;5.82;3.30;;;;;;;9.70;94.11;99931.34;10345475;28;20100;-75
2021/05/04 00:47:34;;;;;;;9.82;3.63;;;;;;;9.04;95.60;99830.69;10336289;28;20137;-75
2021/05/04 00:52:35;;;;;;;6.10;3.28;;;;;;;9.44;97.76;99912.66;10337349;28;20386;-75
2021/05/04 00:57:36;;;;;;;13.55;4.00;;;;;;;9.23;99.97;99903.25;10335730;28;20038;-78
2021/05/04 01:02:37;;;;;;;7.45;3.67;;;;;;;8.85;100.00;99827.06;10362579;28;20045;-77
2021/05/04 01:07:38;;;;;;;14.02;3.88;;;;;;;8.84;100.00;99817.44;10352220;28;20031;-76
2021/05/04 01:12:38;;;;;;;6.15;3.75;;;;;;;9.02;100.00;99839.13;10345533;28;20439;-76
2021/05/04 01:17:39;;;;;;;5.70;3.55;;;;;;;9.06;100.00;99817.63;10371387;28;20061;-76
2021/05/04 01:22:39;;;;;;;8.93;3.20;;;;;;;9.15;100.00;99820.78;10344020;28;20037;-76
2021/05/04 01:27:40;;;;;;;8.18;3.08;;;;;;;9.20;99.50;99806.94;10353424;28;20057;-75
2021/05/04 01:32:40;;;;;;;8.82;2.58;;;;;;;9.29;98.68;99799.28;10332400;28;20057;-78
2021/05/04 01:37:41;;;;;;;4.57;2.10;;;;;;;9.25;95.67;99752.66;10344269;28;20046;-75
2021/05/04 01:42:46;;;;;;;5.45;2.30;;;;;;;9.41;95.43;99792.03;10353344;28;20052;-75
2021/05/04 01:47:46;;;;;;;6.57;2.47;;;;;;;9.11;94.00;99749.88;10360715;28;20048;-75
2021/05/04 01:52:47;;;;;;;7.78;2.10;;;;;;;8.91;96.35;99691.97;10362124;28;20050;-76
2021/05/04 01:57:48;;;;;;;6.78;2.25;;;;;;;9.13;96.21;99726.00;10370071;28;20037;-77
2021/05/04 02:02:48;;;;;;;8.52;2.53;;;;;;;8.86;96.41;99701.94;10360240;28;20123;-76
2021/05/04 02:07:49;;;;;;;9.70;2.42;;;;;;;8.99;97.30;99693.56;10373838;28;20496;-76
2021/05/04 02:12:49;;;;;;;5.65;2.60;;;;;;;8.95;96.85;99698.16;10353556;28;20469;-76
2021/05/04 02:17:50;;;;;;;2.97;1.88;;;;;;;8.85;96.63;99641.13;10371826;28;20511;-75
2021/05/04 02:22:50;;;;;;;3.60;1.92;;;;;;;8.88;94.48;99653.81;10333340;28;20259;-77
2021/05/04 02:27:51;;;;;;;6.28;2.00;;;;;;;9.18;94.92;99668.25;10345300;28;20029;-77
2021/05/04 02:32:51;;;;;;;8.10;1.90;;;;;;;9.17;95.23;99645.91;10348701;28;20045;-77
2021/05/04 02:37:52;;;;;;;3.42;1.38;;;;;;;9.06;93.44;99618.13;10341215;28;20092;-77
2021/05/04 02:42:52;;;;;;;3.83;1.88;;;;;;;9.46;94.15;99654.13;10355579;28;20081;-79
2021/05/04 02:47:53;;;;;;;4.38;1.83;;;;;;;8.98;96.54;99594.97;10357206;28;20669;-78
2021/05/04 02:52:53;;;;;;;3.63;2.05;;;;;;;8.82;100.00;99614.94;10358457;28;20038;-78
2021/05/04 02:57:54;;;;;;;6.60;2.10;;;;;;;9.04;100.00;99625.81;10336120;28;20370;-76
2021/05/04 03:02:54;;;;;;;4.43;1.95;;;;;;;8.96;100.00;99597.28;10347659;28;20146;-75
2021/05/04 03:07:55;;;;;;;3.67;2.00;;;;;;;8.70;100.00;99574.81;10369807;28;20524;-75
2021/05/04 03:12:55;;;;;;;7.00;1.75;;;;;;;8.97;99.24;99566.50;10340498;28;20044;-75
2021/05/04 03:17:56;;;;;;;12.68;2.08;;;;;;;9.21;100.00;99592.75;10341520;28;20072;-75
2021/05/04 03:22:56;;;;;;;6.57;2.25;;;;;;;9.10;100.00;99575.75;10352668;28;20157;-76
2021/05/04 03:27:59;;;;;;;4.28;2.40;;;;;;;8.97;100.00;99566.50;10348546;28;20048;-78
2021/05/04 03:32:59;;;;;;;7.28;2.58;;;;;;;8.50;100.00;99517.00;10355907;28;20050;-75
2021/05/04 03:38:00;;;;;;;7.57;2.50;;;;;;;8.72;100.00;99561.75;10350905;28;20061;-75
2021/05/04 03:43:01;;;;;;;6.93;2.67;;;;;;;8.49;100.00;99520.81;10334656;28;20137;-76
2021/05/04 03:48:02;;;;;;;7.70;3.22;;;;;;;8.89;100.00;99588.03;10352799;28;20148;-76
2021/05/04 03:53:02;;;;;;;10.70;3.47;;;;;;;8.62;100.00;99532.84;10368873;28;20465;-74
2021/05/04 03:58:03;;;;;;;4.97;2.63;;;;;;;8.91;100.00;99584.16;10345932;28;20034;-75
2021/05/04 04:03:03;;;;;;;6.88;2.80;;;;;;;8.95;100.00;99563.41;10344522;28;20045;-75
2021/05/04 04:08:04;;;;;;;8.63;2.50;;;;;;;9.26;100.00;99551.16;10354080;28;20048;-77
2021/05/04 04:13:04;;;;;;;7.45;2.40;;;;;;;9.45;100.00;99547.34;10357788;28;20038;-79
2021/05/04 04:18:05;;;;;;;5.40;1.73;;;;;;;9.46;100.00;99543.53;10342402;28;20042;-76
2021/05/04 04:23:05;;;;;;;10.27;2.20;;;;;;;9.57;100.00;99554.31;10361946;28;20364;-75
2021/05/04 04:28:06;;;;;;;7.25;2.35;;;;;;;9.38;100.00;99514.97;10344760;28;20049;-75
2021/05/04 04:33:07;;;;;;;12.93;2.33;;;;;;;9.48;100.00;99546.63;10347922;28;20140;-79
2021/05/04 04:38:07;;;;;;;12.35;2.35;;;;;;;9.52;100.00;99541.97;10371121;28;20046;-76
2021/05/04 04:43:07;;;;;;;12.13;2.63;;;;;;;9.46;100.00;99508.47;10371646;28;20061;-78
2021/05/04 04:48:08;;;;;;;18.77;3.17;;;;;;;9.56;100.00;99507.69;10376312;28;20049;-80
2021/05/04 04:53:09;;;;;;;19.98;4.45;;;;;;;9.37;100.00;99486.47;10354179;28;20030;-81
2021/05/04 04:58:10;;;;;;;11.35;2.83;;;;;;;9.39;100.00;99474.16;10351175;28;20045;-76
2021/05/04 05:03:10;;;;;;;4.93;2.20;;;;;;;9.42;100.00;99504.97;10358329;28;20436;-76
2021/05/04 05:08:11;;;;;;;12.10;3.05;;;;;;;8.80;100.00;99439.38;10335353;28;20042;-75
2021/05/04 05:13:11;;;;;;;13.95;3.80;;;;;;;8.83;100.00;99459.41;10345420;28;20042;-76
2021/05/04 05:18:12;;;;;;;11.52;3.55;;;;;;;8.90;100.00;99507.94;10363590;28;20042;-76
2021/05/04 05:23:12;;;;;;;17.70;4.50;;;;;;;8.60;100.00;99457.78;10356988;28;20030;-77
2021/05/04 05:28:14;;;;;;;23.88;4.97;;;;;;;9.01;100.00;99529.53;10339525;28;20121;-77
2021/05/04 05:33:14;;;;;;;24.45;4.97;;;;;;;9.02;100.00;99514.91;10364034;28;20046;-77
2021/05/04 05:38:15;;;;;;;27.52;4.30;;;;;;;9.22;100.00;99524.22;10326258;28;20279;-77
2021/05/04 05:43:15;;;;;;;24.10;4.50;;;;;;;9.18;100.00;99480.28;10354022;28;20037;-76
2021/05/04 05:48:16;;;;;;;25.52;4.45;;;;;;;9.26;100.00;99481.06;10340774;28;20038;-78
2021/05/04 05:53:18;;;;;;;30.05;5.25;;;;;;;9.64;100.00;99514.66;10360026;28;20605;-78
2021/05/04 05:58:19;;;;;;;25.67;4.65;;;;;;;9.62;100.00;99508.84;10362418;28;20073;-80
2021/05/04 06:03:19;;;;;;;24.45;5.13;;;;;;;9.29;100.00;99467.59;10378998;28;20548;-79
2021/05/04 06:08:20;;;;;;;23.73;4.57;;;;;;;9.30;100.00;99471.81;10348335;28;20038;-79
2021/05/04 06:13:20;;;;;;;31.75;5.20;;;;;;;9.35;100.00;99467.22;10353213;28;20044;-79
2021/05/04 06:18:21;;;;;;;25.15;4.75;;;;;;;9.13;100.00;99450.25;10356448;28;20057;-78
2021/05/04 06:23:21;;;;;;;11.82;2.90;;;;;;;9.35;100.00;99480.69;10358583;28;20056;-78
2021/05/04 06:28:22;;;;;;;13.68;3.00;;;;;;;9.43;100.00;99517.28;10356105;28;20049;-78
2021/05/04 06:33:22;;;;;;;13.90;2.88;;;;;;;9.13;100.00;99510.31;10363755;28;20058;-78
2021/05/04 06:38:23;;;;;;;12.82;3.13;;;;;;;9.02;100.00;99504.13;10345362;28;20030;-80
2021/05/04 06:43:23;;;;;;;16.52;3.25;;;;;;;9.02;100.00;99506.81;10324517;28;20033;-78
2021/05/04 06:48:24;;;;;;;20.88;4.88;;;;;;;9.21;100.00;99494.94;10350094;28;20042;-79
2021/05/04 06:53:25;;;;;;;14.20;3.13;;;;;;;9.47;100.00;99499.19;10348464;28;20474;-76
2021/05/04 06:58:26;;;;;;;25.35;4.45;;;;;;;9.56;100.00;99537.38;10363088;28;20108;-76
2021/05/04 07:03:26;;;;;;;16.23;3.42;;;;;;;9.67;100.00;99489.59;10356101;28;20150;-81
2021/05/04 07:08:27;;;;;;;18.90;3.30;;;;;;;9.68;100.00;99485.72;10372976;28;20072;-78
2021/05/04 07:13:27;;;;;;;24.50;4.20;;;;;;;10.16;100.00;99515.00;10356025;28;20048;-78
2021/05/04 07:18:28;;;;;;;15.77;3.03;;;;;;;10.44;100.00;99497.22;10367886;28;20145;-79
2021/05/04 07:23:28;;;;;;;16.73;3.67;;;;;;;10.51;100.00;99481.00;10372160;28;20483;-79
2021/05/04 07:28:30;;;;;;;21.30;5.65;;;;;;;9.83;99.64;99420.94;10357471;28;20042;-80
2021/05/04 07:33:30;;;;;;;20.80;4.80;;;;;;;10.19;99.99;99469.47;10370825;28;20570;-76
2021/05/04 07:38:31;;;;;;;13.75;2.72;;;;;;;9.88;98.54;99461.06;10355889;28;20042;-76
2021/05/04 07:43:31;;;;;;;15.30;3.40;;;;;;;10.06;98.85;99499.56;10357623;28;20052;-77
2021/05/04 07:48:32;;;;;;;19.42;2.80;;;;;;;10.28;98.87;99510.34;10354701;28;20060;-77
2021/05/04 07:53:35;;;;;;;24.35;3.70;;;;;;;9.82;100.00;99403.97;10351568;28;20038;-76
2021/05/04 07:58:35;;;;;;;21.58;3.58;;;;;;;10.40;100.00;99507.25;10369225;28;20041;-76
2021/05/04 08:03:36;;;;;;;20.50;4.20;;;;;;;10.05;100.00;99465.63;10369660;28;20413;-76
2021/05/04 08:08:36;;;;;;;20.73;3.97;;;;;;;10.14;100.00;99533.50;10352573;28;20201;-77
2021/05/04 08:13:37;;;;;;;28.30;5.25;;;;;;;9.95;100.00;99520.44;10372142;28;20399;-79
2021/05/04 08:18:38;;;;;;;30.35;5.43;;;;;;;9.77;100.00;99519.66;10360698;28;20042;-79
2021/05/04 08:23:38;;;;;;;27.50;5.32;;;;;;;9.68;100.00;99518.09;10324530;28;20180;-79
2021/05/04 08:28:39;;;;;;;27.92;4.28;;;;;;;9.90;100.00;99496.50;10322235;28;20034;-79
2021/05/04 08:33:39;;;;;;;34.30;6.32;;;;;;;9.78;100.00;99451.03;10369329;28;20069;-78
2021/05/04 08:38:40;;;;;;;29.90;4.80;;;;;;;9.56;100.00;99467.22;10350878;28;20103;-80
2021/05/04 08:43:45;;;;;;;27.27;4.65;;;;;;;9.49;100.00;99526.56;10370577;28;20034;-79
2021/05/04 08:48:46;;;;;;;29.15;5.20;;;;;;;9.16;100.00;99541.91;10369222;28;20030;-81
2021/05/04 08:53:47;;;;;;;28.15;6.22;;;;;;;9.09;100.00;99541.88;10328500;28;20056;-80
2021/05/04 08:58:48;;;;;;;28.50;5.95;;;;;;;9.59;100.00;99568.97;10332808;28;20156;-78
2021/05/04 09:03:51;;;;;;;25.40;3.92;;;;;;;9.58;100.00;99610.59;10350314;28;20140;-80
2021/05/04 09:08:59;;;;;;;17.38;3.25;;;;;;;8.96;100.00;99570.31;10354072;28;20085;-82
2021/05/04 09:19:37;;;;;;;13.02;2.22;;;;;;;10.24;91.71;99587.91;10357239;28;20589;-77
2021/05/04 09:24:41;;;;;;;9.80;1.95;;;;;;;10.97;83.95;99661.16;10353135;28;20095;-78
2021/05/04 09:29:44;;;;;;;8.00;2.28;;;;;;;11.51;77.53;99614.19;10344223;28;20050;-79
2021/05/04 09:34:45;;;;;;;;;;;;;;;12.20;79.43;99624.19;10366529;28;20428;-76
2021/05/04 09:39:46;;;;;;;13.18;2.08;;;;;;;11.45;76.70;99651.72;10345629;28;19996;-75
2021/05/04 09:44:48;;;;;;;10.93;1.92;;;;;;;10.06;83.11;99650.75;10363232;28;20033;-77
2021/05/04 09:49:51;;;;;;;5.07;1.25;;;;;;;11.51;72.73;99698.09;10362787;28;20040;-75
2021/05/04 09:54:52;;;;;;;4.85;0.85;;;;;;;12.14;69.49;99639.34;10361842;28;20030;-75
2021/05/04 09:59:52;;;;;;;10.93;1.77;;;;;;;10.80;78.30;99702.53;10370938;28;20740;-76
2021/05/04 10:04:53;;;;;;;13.52;2.33;;;;;;;10.69;83.15;99680.13;10359731;28;20084;-76
2021/05/04 10:09:54;;;;;;;12.45;1.85;;;;;;;11.29;81.00;99689.25;10343145;28;20497;-76
2021/05/04 10:14:58;;;;;;;12.95;2.60;;;;;;;10.53;82.84;99700.22;10370568;28;20048;-77
2021/05/04 10:20:04;;;;;;;8.52;1.50;;;;;;;10.94;76.02;99729.53;10346578;28;20037;-81
2021/05/04 10:25:10;;;;;;;15.52;2.20;;;;;;;10.80;75.22;99729.56;10376203;28;20033;-78
2021/05/04 10:30:18;;;;;;;6.85;1.00;;;;;;;10.76;72.82;99723.38;10375236;28;20053;-77
2021/05/04 10:35:28;;;;;;;6.30;1.02;;;;;;;10.72;67.93;99749.63;10359783;28;20149;-78
2021/05/04 10:40:34;;;;;;;7.35;1.20;;;;;;;10.75;71.72;99765.09;10344273;28;20091;-78
2021/05/04 10:45:39;;;;;;;7.28;1.17;;;;;;;10.62;72.22;99761.22;10348312;28;20084;-77
2021/05/04 10:50:53;;;;;;;6.95;1.48;;;;;;;10.62;72.85;99782.84;10375714;28;20080;-76
2021/05/04 10:55:54;;;;;;;9.27;1.50;;;;;;;10.64;70.97;99796.75;10375310;28;20113;-79
2021/05/04 11:01:01;;;;;;;5.38;1.55;;;;;;;10.43;71.80;99803.66;10376899;28;20034;-80
2021/05/04 11:06:10;;;;;;;8.45;1.65;;;;;;;10.83;70.55;99804.47;10374979;28;20033;-79
2021/05/04 11:11:18;;;;;;;7.88;1.40;;;;;;;11.16;68.20;99751.91;10371592;28;20065;-80
2021/05/04 11:16:41;;;;;;;8.93;1.40;;;;;;;11.47;66.54;99808.28;10362288;28;20040;-79
2021/05/04 11:21:47;;;;;;;12.60;1.42;;;;;;;11.22;68.92;99787.47;10351812;28;20164;-80
2021/05/04 11:26:48;;;;;;;6.90;1.55;;;;;;;11.53;67.12;99798.63;10373317;28;20049;-78
2021/05/04 11:31:52;;;;;;;14.07;1.15;;;;;;;11.35;67.09;99812.16;10361699;28;20100;-78
2021/05/04 11:36:53;;;;;;;10.35;0.98;;;;;;;11.29;62.06;99819.91;10356524;28;20072;-79
2021/05/04 11:41:59;;;;;;;6.43;1.42;;;;;;;10.29;62.00;99630.75;10357082;28;20045;-79
2021/05/04 11:47:19;;;;;;;7.22;1.38;;;;;;;11.43;64.74;99814.47;10354906;28;20166;-79
2021/05/04 11:52:22;;;;;;;6.75;1.23;;;;;;;11.35;63.12;99823.75;10370447;28;20034;-79
2021/05/04 11:57:28;;;;;;;10.30;1.10;;;;;;;11.26;62.84;99853.13;10372642;28;20034;-80
2021/05/04 12:02:30;;;;;;;6.60;1.50;;;;;;;10.99;64.20;99758.88;10332613;28;20042;-77
2021/05/04 12:07:45;;;;;;;7.25;1.42;;;;;;;11.47;63.64;99824.53;10358454;28;20064;-76
2021/05/04 12:12:51;;;;;;;6.38;1.33;;;;;;;11.56;61.48;99849.25;10356200;28;20066;-79
2021/05/04 12:18:11;;;;;;;7.20;1.00;;;;;;;11.63;60.35;99778.84;10354667;28;20044;-78
2021/05/04 12:23:14;;;;;;;6.55;1.50;;;;;;;11.74;60.00;99801.25;10359066;28;20045;-77
2021/05/04 12:28:17;;;;;;;12.85;1.50;;;;;;;11.95;59.62;99870.09;10358355;28;20542;-76
2021/05/04 12:33:19;;;;;;;8.18;1.20;;;;;;;11.77;60.63;99849.19;10352309;28;20156;-78
2021/05/04 12:38:31;;;;;;;11.38;1.30;;;;;;;11.96;59.59;99844.53;10355543;28;20046;-77
2021/05/04 12:43:32;;;;;;;6.78;1.20;;;;;;;11.82;60.43;99870.44;10345922;28;20041;-81
2021/05/04 12:48:34;;;;;;;7.93;0.77;;;;;;;11.78;61.83;99904.91;10352927;28;20477;-79
2021/05/04 12:53:38;;;;;;;11.95;1.23;;;;;;;11.60;61.74;99839.19;10354195;28;20066;-77
2021/05/04 12:59:03;;;;;;;9.05;1.10;;;;;;;11.71;61.05;99861.59;10341839;28;20447;-80
2021/05/04 13:04:10;;;;;;;9.05;1.60;;;;;;;11.11;62.12;99797.53;10358620;28;20033;-76
2021/05/04 13:20:31;;;;;;;13.00;1.40;;;;;;;11.81;61.83;99882.47;10356071;28;20113;-78
2021/05/04 13:30:52;;;;;;;7.05;1.00;;;;;;;12.01;60.16;99879.34;10358944;28;20058;-79
2021/05/04 13:36:04;;;;;;;9.45;1.23;;;;;;;11.89;63.28;99914.97;10372013;28;20533;-77
2021/05/04 13:51:43;;;;;;;9.80;1.42;;;;;;;11.47;63.69;99928.13;10357662;28;20042;-79
2021/05/04 13:56:44;;;;;;;7.22;1.30;;;;;;;11.83;63.49;99918.03;10358813;28;20109;-76
2021/05/04 14:01:49;;;;;;;11.02;1.80;;;;;;;12.03;62.61;99969.09;10361425;28;20041;-76
2021/05/04 14:27:50;;;;;;;8.77;1.60;;;;;;;11.95;64.58;99908.00;10364278;28;20068;-79
2021/05/04 14:32:50;;;;;;;11.00;1.55;;;;;;;12.18;62.97;99948.97;10370686;28;20098;-79
2021/05/04 14:59:06;;;;;;;13.23;2.35;;;;;;;12.42;60.28;99969.00;10359854;28;20034;-81
2021/05/04 15:04:06;;;;;;;8.23;1.73;;;;;;;12.44;60.46;99917.09;10356855;28;20042;-78
2021/05/04 15:09:09;;;;;;;11.10;2.35;;;;;;;12.29;63.75;99975.25;10356842;28;20100;-80
2021/05/04 15:14:38;;;;;;;12.77;2.13;;;;;;;12.05;67.65;99988.44;10360735;28;20049;-77
2021/05/04 15:24:52;;;;;;;7.40;1.20;;;;;;;11.80;65.29;99994.63;10354433;28;20063;-82
2021/05/04 15:29:53;;;;;;;9.48;1.55;;;;;;;11.75;65.42;99964.47;10352204;28;20825;-80
2021/05/04 15:34:58;;;;;;;10.02;1.63;;;;;;;11.92;62.86;99962.94;10337123;28;20048;-79
2021/05/04 15:39:59;;;;;;;3.83;1.23;;;;;;;12.03;62.54;100017.84;10359785;28;20046;-79
2021/05/04 15:45:04;;;;;;;9.07;1.55;;;;;;;11.80;63.07;100005.44;10334643;28;20402;-78
2021/05/04 15:50:12;;;;;;;3.17;0.80;;;;;;;11.62;62.43;99966.81;10370803;28;20121;-79
2021/05/04 16:11:02;;;;;;;3.53;1.00;;;;;;;12.85;58.68;100003.31;10347900;28;20390;-78
2021/05/04 16:16:03;;;;;;;;;;;;;;;13.06;60.41;99992.34;10369341;28;20037;-82
2021/05/04 16:31:11;;;;;;;3.80;0.90;;;;;;;12.87;59.32;99960.28;10352506;28;22131;-75
2021/05/04 16:36:11;;;;;;;5.72;1.52;;;;;;;12.94;60.32;99992.81;10383540;28;20144;-76
2021/05/04 16:41:12;;;;;;;7.03;1.80;;;;;;;12.63;61.90;100013.47;10364587;28;20054;-79
2021/05/04 16:46:13;;;;;;;7.55;1.60;;;;;;;12.54;62.53;100016.59;10360610;28;20030;-79
2021/05/04 16:51:13;;;;;;;6.00;1.75;;;;;;;11.84;69.98;100051.50;10373272;28;20121;-80
2021/05/04 16:56:14;;;;;;;5.35;1.00;;;;;;;10.74;76.40;100001.41;10373390;28;20041;-80
2021/05/04 17:01:14;;;;;;;4.85;0.88;;;;;;;10.47;76.26;100017.91;10355062;28;20056;-79
2021/05/04 17:11:21;;;;;;;6.53;0.80;;;;;;;10.89;73.64;100023.84;10360851;28;20386;-82
2021/05/04 17:16:22;;;;;;;3.10;0.70;;;;;;;10.87;75.79;100021.53;10350310;28;20022;-80
2021/05/04 17:21:22;;;;;;;6.22;0.95;;;;;;;10.81;74.75;100003.38;10362631;28;20049;-79
2021/05/04 17:26:26;;;;;;;6.43;1.23;;;;;;;10.93;72.21;100017.31;10356465;28;20037;-80
2021/05/04 17:31:26;;;;;;;5.60;0.85;;;;;;;11.10;71.89;100001.50;10356097;28;20061;-77
2021/05/04 17:36:27;;;;;;;10.80;1.10;;;;;;;11.22;72.11;100014.69;10377121;28;20046;-79
2021/05/04 17:41:28;;;;;;;2.42;0.70;;;;;;;10.80;70.43;99983.69;10359946;28;20065;-79
2021/05/04 17:46:29;;;;;;;4.93;1.05;;;;;;;11.07;70.59;100034.75;10375591;28;20164;-81
2021/05/04 17:51:29;;;;;;;5.03;1.10;;;;;;;10.99;70.12;100040.13;10359565;28;20029;-80
2021/05/04 17:56:30;;;;;;;4.53;1.17;;;;;;;11.07;68.22;100050.97;10377307;28;20041;-81
2021/05/04 18:01:31;;;;;;;7.63;1.25;;;;;;;10.91;68.24;100054.00;10353168;28;20252;-80
2021/05/04 18:06:34;;;;;;;5.68;1.15;;;;;;;10.75;70.00;100038.13;10379694;28;20382;-83
2021/05/04 18:11:44;;;;;;;11.90;1.85;;;;;;;10.67;71.73;100071.66;10362881;28;20569;-81
2021/05/04 18:22:04;;;;;;;9.95;2.00;;;;;;;10.27;71.67;100065.19;10351959;28;20049;-80
2021/05/04 18:27:06;;;;;;;10.75;1.95;;;;;;;10.16;75.51;100076.72;10358544;28;20136;-80
2021/05/04 18:32:11;;;;;;;7.55;1.60;;;;;;;10.19;74.58;100090.63;10364734;28;20560;-78
2021/05/04 18:37:22;;;;;;;7.85;2.00;;;;;;;10.05;74.53;100091.28;10348115;28;20050;-79
2021/05/04 19:25:13;;;;;;;7.80;1.27;;;;;;;9.60;76.66;100137.13;10329784;28;20045;-77
2021/05/04 19:30:23;;;;;;;10.45;1.85;;;;;;;9.38;76.27;100119.16;10310387;28;20036;-76
2021/05/04 20:12:23;;;;;;;11.80;2.25;;;;;;;8.07;88.17;100151.91;10373385;28;20092;-76
2021/05/04 20:17:28;;;;;;;12.75;2.95;;;;;;;8.17;89.00;100162.09;10352935;28;20096;-79
2021/05/04 20:22:38;;;;;;;8.80;1.77;;;;;;;8.08;89.75;100159.63;10358132;28;20124;-81
2021/05/04 20:27:38;;;;;;;10.52;1.98;;;;;;;8.12;89.31;100154.31;10358076;28;20375;-80
2021/05/04 20:32:41;;;;;;;12.63;1.83;;;;;;;8.20;88.29;100150.59;10335991;28;20326;-78
2021/05/04 20:37:43;;;;;;;9.02;1.48;;;;;;;8.19;89.05;100149.06;10353766;28;20042;-79
2021/05/04 20:42:44;;;;;;;9.00;1.40;;;;;;;8.13;88.09;100145.09;10341656;28;20056;-78
2021/05/04 20:47:45;;;;;;;15.27;1.70;;;;;;;8.15;88.07;100158.97;10356008;28;20026;-81
2021/05/04 20:52:45;;;;;;;5.80;1.20;;;;;;;7.95;88.07;100121.34;10341664;28;20065;-79
2021/05/04 20:57:46;;;;;;;9.18;1.30;;;;;;;7.96;87.88;100104.06;10351479;28;20343;-80
2021/05/04 21:02:48;;;;;;;8.93;1.40;;;;;;;8.35;87.38;100147.00;10356960;28;20057;-80
2021/05/04 21:07:53;;;;;;;7.50;1.25;;;;;;;8.13;86.75;100113.56;10356472;28;21449;-79
2021/05/04 21:12:54;;;;;;;7.95;1.27;;;;;;;8.69;85.63;100149.84;10332785;28;20566;-82
2021/05/04 21:17:57;;;;;;;10.30;1.25;;;;;;;8.65;86.01;100154.41;10369733;28;20045;-82
2021/05/04 21:28:17;;;;;;;8.13;1.08;;;;;;;8.65;84.16;100127.47;10361229;28;20077;-79
2021/05/04 21:33:17;;;;;;;4.07;0.90;;;;;;;8.78;84.04;100155.75;10371773;28;20141;-77
2021/05/04 21:38:18;;;;;;;6.18;1.38;;;;;;;8.92;83.09;100167.91;10364124;28;20137;-76
2021/05/04 21:43:18;;;;;;;4.07;1.13;;;;;;;8.07;82.69;100044.22;10370077;28;20125;-77
2021/05/04 21:48:19;;;;;;;4.90;1.20;;;;;;;8.74;82.95;100146.84;10369082;28;20049;-78
2021/05/04 21:53:19;;;;;;;7.20;1.60;;;;;;;8.70;86.08;100154.09;10364925;28;20037;-79
2021/05/04 21:58:22;;;;;;;10.75;1.38;;;;;;;8.84;87.85;100151.63;10363387;28;20037;-76
2021/05/04 22:03:22;;;;;;;8.30;1.48;;;;;;;8.58;89.88;100105.81;10362619;28;20049;-77
2021/05/04 22:08:23;;;;;;;10.55;1.92;;;;;;;8.76;89.45;100143.78;10344242;28;20536;-77
2021/05/04 22:19:28;;;;;;;13.30;2.17;;;;;;;8.62;91.04;100161.28;10354070;28;20096;-76
2021/05/04 22:39:57;;;;;;;5.70;1.55;;;;;;;7.46;100.00;100165.03;10376545;28;20061;-78
2021/05/04 23:16:40;;;;;;;4.40;0.95;;;;;;;7.13;100.00;100117.13;10361659;28;20034;-77
2021/05/04 23:21:41;;;;;;;10.95;1.33;;;;;;;7.37;100.00;100159.09;10377334;28;20049;-78
2021/05/04 23:26:41;;;;;;;7.45;1.10;;;;;;;6.92;100.00;100106.72;10355253;28;20066;-81
2021/05/04 23:31:42;;;;;;;8.60;1.23;;;;;;;6.92;100.00;100112.09;10354731;28;20054;-77
2021/05/04 23:36:42;;;;;;;10.25;1.10;;;;;;;7.23;100.00;100191.81;10352822;28;20103;-78
2021/05/04 23:41:43;;;;;;;7.88;1.92;;;;;;;7.09;100.00;100170.78;10353374;28;20103;-76
2021/05/04 23:46:44;;;;;;;4.45;0.90;;;;;;;6.78;100.00;100123.31;10371462;28;20038;-77
2021/05/04 23:51:45;;;;;;;3.55;1.00;;;;;;;7.07;100.00;100173.06;10356900;28;20121;-76
2021/05/04 23:56:45;;;;;;;6.90;0.95;;;;;;;7.01;100.00;100163.72;10375488;28;20489;-76
